Prince Rupert, Canada
Current Conditions -  °F | °C
As of 5:15 PM on Tuesday 27 Jan 2015 (Local Time) from CYPR Reporting Station
Light Rain Light Rain  
Wind Chill: 38°   Ceiling: 4800
Heat Index: 41°   Visibility: 9mi
Dew Point: 37°   Wind: 5mph
Humidity: 87%   Direction: 160°SSE
Pressure: 30.13"   Gusts: NA
Location:  54.31°N, 130.33°W
Report Text: CYPR 280115Z AUTO 16004KT 120V190 9SM -RA FEW019 SCT027 BKN048 OVC055 05/03 A3013 RMK SLP203
Loading
Personal Weather Stations






























Interactive Weather Map New forecast layout! Learn more

10-Day Weather Forecast

Advertisements
Track Severe Weather on mobile